createdAt,value
2022-12-03T00:00:12.853Z,61.15
2022-12-03T00:05:29.566Z,60.50
2022-12-03T00:08:03.605Z,63.38
2022-12-03T00:10:34.006Z,59.40
2022-12-03T00:13:00.902Z,63.38
2022-12-03T00:15:28.131Z,61.50
2022-12-03T00:17:55.046Z,60.05
2022-12-03T00:20:25.248Z,62.53
2022-12-03T00:22:52.885Z,55.90
2022-12-03T00:25:21.001Z,69.70
2022-12-03T00:27:48.868Z,62.20
2022-12-03T00:30:21.529Z,66.43
2022-12-03T00:32:50.727Z,71.05
2022-12-03T00:35:18.525Z,60.47
2022-12-03T00:37:48.492Z,61.78
2022-12-03T00:40:15.834Z,64.70
2022-12-03T00:42:42.782Z,72.63
2022-12-03T00:45:10.476Z,63.10
2022-12-03T00:47:37.288Z,65.82
2022-12-03T00:50:06.590Z,63.08
2022-12-03T00:52:33.907Z,64.20
2022-12-03T00:55:01.039Z,59.50
2022-12-03T00:57:27.882Z,61.53
2022-12-03T00:59:55.046Z,62.97
2022-12-03T01:02:21.925Z,56.25
2022-12-03T01:04:49.249Z,59.35
2022-12-03T01:07:16.650Z,62.30
2022-12-03T01:09:44.328Z,58.55
2022-12-03T01:12:12.095Z,62.47
2022-12-03T01:14:39.439Z,63.65
2022-12-03T01:17:07.038Z,63.60
2022-12-03T01:19:35.326Z,60.33
2022-12-03T01:22:02.623Z,69.03
2022-12-03T01:24:30.358Z,66.15
2022-12-03T01:26:57.698Z,60.72
2022-12-03T01:29:25.214Z,64.85
2022-12-03T01:32:11.256Z,64.22
2022-12-03T01:34:44.209Z,68.32
2022-12-03T01:37:34.605Z,64.05
2022-12-03T01:40:05.694Z,63.90
2022-12-03T01:42:42.556Z,67.45
2022-12-03T01:45:23.616Z,69.85
2022-12-03T01:47:51.406Z,66.55
2022-12-03T01:50:32.592Z,63.15
2022-12-03T01:53:03.751Z,69.28
2022-12-03T01:55:34.187Z,68.82
2022-12-03T01:58:05.118Z,65.68
2022-12-03T02:00:33.141Z,68.85
2022-12-03T02:03:04.006Z,71.63
2022-12-03T02:05:35.570Z,70.28
2022-12-03T02:08:35.758Z,73.72
2022-12-03T02:11:25.347Z,74.22
2022-12-03T02:14:02.765Z,68.00
2022-12-03T02:16:34.593Z,64.47
2022-12-03T02:19:02.251Z,69.82
2022-12-03T02:21:51.121Z,72.13
2022-12-03T02:24:38.971Z,72.18
2022-12-03T02:27:09.358Z,73.57
2022-12-03T02:29:38.273Z,74.60
2022-12-03T02:32:06.024Z,75.80
2022-12-03T02:34:46.054Z,72.50
2022-12-03T02:37:27.101Z,82.93
2022-12-03T02:40:03.251Z,79.25
2022-12-03T02:42:35.224Z,76.47
2022-12-03T02:45:19.310Z,77.90
2022-12-03T02:47:56.101Z,77.35
2022-12-03T02:50:32.238Z,77.65
2022-12-03T02:53:05.442Z,79.82
2022-12-03T02:55:38.834Z,81.82
2022-12-03T02:58:07.296Z,76.95
2022-12-03T03:00:36.267Z,73.68
2022-12-03T03:03:08.202Z,70.85
2022-12-03T03:05:40.837Z,75.18
2022-12-03T03:08:10.506Z,73.75
2022-12-03T03:10:41.455Z,75.88
2022-12-03T03:13:18.609Z,79.68
2022-12-03T03:15:46.514Z,70.57
2022-12-03T03:18:15.974Z,78.35
2022-12-03T03:20:44.928Z,78.75
2022-12-03T03:23:20.168Z,78.85
2022-12-03T03:25:59.110Z,72.93
2022-12-03T03:28:28.360Z,67.13
2022-12-03T03:30:56.053Z,81.20
2022-12-03T03:33:23.435Z,75.43
2022-12-03T03:35:50.635Z,72.22
2022-12-03T03:38:22.493Z,82.60
2022-12-03T03:40:56.458Z,73.40
2022-12-03T03:43:25.022Z,71.60
2022-12-03T03:45:54.526Z,71.78
2022-12-03T03:48:23.743Z,71.72
2022-12-03T03:51:04.000Z,69.30
2022-12-03T03:53:33.969Z,82.18
2022-12-03T03:56:06.582Z,76.90
2022-12-03T03:58:34.205Z,74.15
2022-12-03T04:01:01.985Z,70.95
2022-12-03T04:03:29.401Z,69.13
2022-12-03T04:05:56.694Z,72.18
2022-12-03T04:08:23.972Z,75.60
2022-12-03T04:11:09.879Z,72.85
2022-12-03T04:13:39.795Z,70.97
2022-12-03T04:16:09.277Z,71.30
2022-12-03T04:18:46.149Z,68.53
2022-12-03T04:21:37.666Z,74.22
2022-12-03T04:24:09.919Z,73.53
2022-12-03T04:26:56.979Z,67.95
2022-12-03T04:29:35.712Z,70.00
2022-12-03T04:32:24.074Z,67.50
2022-12-03T04:35:10.122Z,74.75
2022-12-03T04:37:40.299Z,65.00
2022-12-03T04:40:29.510Z,70.78
2022-12-03T04:42:59.401Z,72.18
2022-12-03T04:45:27.802Z,68.60
2022-12-03T04:47:55.675Z,71.82
2022-12-03T04:50:23.074Z,74.20
2022-12-03T04:52:50.738Z,67.20
2022-12-03T04:55:18.362Z,69.78
2022-12-03T04:57:45.748Z,71.32
2022-12-03T05:00:14.223Z,68.90
2022-12-03T05:02:41.150Z,70.95
2022-12-03T05:05:09.271Z,67.63
2022-12-03T05:07:36.675Z,66.30
2022-12-03T05:10:06.248Z,68.43
2022-12-03T05:12:33.174Z,70.10
2022-12-03T05:15:00.491Z,71.05
2022-12-03T05:17:27.667Z,63.08
2022-12-03T05:20:13.797Z,64.90
2022-12-03T05:22:42.558Z,70.45
2022-12-03T05:25:13.799Z,65.97
2022-12-03T05:27:40.697Z,59.65
2022-12-03T05:30:08.932Z,66.90
2022-12-03T05:32:35.805Z,61.42
2022-12-03T05:35:03.004Z,62.28
2022-12-03T05:37:30.321Z,61.90
2022-12-03T05:39:57.871Z,65.93
2022-12-03T05:42:47.052Z,59.78
2022-12-03T05:45:18.647Z,58.72
2022-12-03T05:47:45.436Z,63.47
2022-12-03T05:50:12.676Z,63.20
2022-12-03T05:52:43.515Z,58.25
2022-12-03T05:55:11.959Z,62.03
2022-12-03T05:57:39.515Z,60.63
2022-12-03T06:00:18.425Z,64.65
2022-12-03T06:02:45.874Z,59.28
2022-12-03T06:05:15.751Z,55.25
2022-12-03T06:07:48.752Z,59.95
2022-12-03T06:10:29.881Z,59.25
2022-12-03T06:12:58.484Z,60.08
2022-12-03T06:15:26.029Z,59.97
2022-12-03T06:17:53.630Z,58.08
2022-12-03T06:20:21.500Z,63.38
2022-12-03T06:22:48.765Z,60.88
2022-12-03T06:25:17.121Z,58.63
2022-12-03T06:27:44.601Z,63.40
2022-12-03T06:30:13.867Z,51.17
2022-12-03T06:32:41.104Z,56.85
2022-12-03T06:35:08.974Z,65.72
2022-12-03T06:37:35.891Z,59.70
2022-12-03T06:40:03.302Z,56.10
2022-12-03T06:48:15.625Z,56.15
2022-12-03T06:50:42.514Z,53.92
2022-12-03T06:53:09.622Z,52.83
2022-12-03T06:55:36.419Z,49.85
2022-12-03T06:58:04.332Z,51.38
2022-12-03T07:00:31.450Z,50.33
2022-12-03T07:02:58.761Z,51.25
2022-12-03T07:05:26.309Z,53.63
2022-12-03T07:07:55.570Z,53.72
2022-12-03T07:10:22.852Z,48.35
2022-12-03T07:12:49.920Z,54.15
2022-12-03T07:15:16.861Z,51.50
2022-12-03T07:17:43.961Z,50.17
2022-12-03T07:20:11.540Z,52.83
2022-12-03T07:22:38.901Z,49.55
2022-12-03T07:25:06.750Z,48.75
2022-12-03T07:27:34.057Z,59.05
2022-12-03T07:30:01.376Z,57.05
2022-12-03T07:32:28.785Z,57.97
2022-12-03T07:34:56.604Z,59.28
2022-12-03T07:37:23.878Z,56.45
2022-12-03T07:39:52.631Z,56.20
2022-12-03T07:42:19.784Z,56.10
2022-12-03T07:44:46.620Z,54.25
2022-12-03T07:47:13.841Z,53.75
2022-12-03T07:49:41.232Z,52.85
2022-12-03T07:52:11.353Z,51.05
2022-12-03T07:54:38.334Z,52.88
2022-12-03T07:57:05.583Z,53.63
2022-12-03T07:59:32.492Z,59.88
2022-12-03T08:01:59.764Z,51.92
2022-12-03T08:04:26.696Z,56.65
2022-12-03T08:06:54.077Z,55.30
2022-12-03T08:09:42.374Z,52.78
2022-12-03T08:12:20.163Z,53.60
2022-12-03T08:14:54.802Z,53.95
2022-12-03T08:17:23.421Z,53.35
2022-12-03T08:19:50.313Z,49.97
2022-12-03T08:22:31.378Z,49.80
2022-12-03T08:25:03.981Z,51.45
2022-12-03T08:27:37.571Z,54.25
2022-12-03T08:30:06.834Z,54.15
2022-12-03T08:32:44.856Z,51.53
2022-12-03T08:35:24.192Z,53.25
2022-12-03T08:38:14.187Z,53.30
2022-12-03T08:40:45.745Z,49.45
2022-12-03T08:43:30.332Z,44.83
2022-12-03T08:46:01.737Z,52.55
2022-12-03T08:48:47.061Z,50.20
2022-12-03T08:51:29.534Z,49.10
2022-12-03T08:54:27.419Z,51.28
2022-12-03T08:56:54.794Z,52.95
2022-12-03T08:59:32.762Z,54.13
2022-12-03T09:02:00.226Z,51.65
2022-12-03T09:04:53.221Z,53.25
2022-12-03T09:07:20.283Z,49.90
2022-12-03T09:09:47.936Z,51.53
2022-12-03T09:12:15.095Z,50.90
2022-12-03T09:14:42.497Z,50.03
2022-12-03T09:17:12.424Z,55.97
2022-12-03T09:19:46.244Z,58.03
2022-12-03T09:24:44.938Z,60.90
2022-12-03T09:28:14.893Z,59.97
2022-12-03T09:30:42.153Z,53.30
2022-12-03T09:33:10.566Z,58.50
2022-12-03T09:35:37.715Z,59.90
2022-12-03T09:38:04.731Z,57.28
2022-12-03T09:40:31.926Z,52.47
2022-12-03T09:42:58.817Z,59.83
2022-12-03T09:45:26.443Z,59.75
2022-12-03T09:47:55.212Z,62.50
2022-12-03T09:50:28.920Z,52.35
2022-12-03T09:53:03.320Z,54.70
2022-12-03T09:55:31.513Z,56.92
2022-12-03T09:57:58.910Z,58.17
2022-12-03T10:00:32.059Z,56.88
2022-12-03T10:03:06.858Z,56.55
2022-12-03T10:05:36.396Z,59.42
2022-12-03T10:08:13.268Z,57.90
2022-12-03T10:10:42.312Z,56.70
2022-12-03T10:13:38.879Z,56.40
2022-12-03T10:16:23.446Z,58.60
2022-12-03T10:19:00.473Z,56.80
2022-12-03T10:21:41.785Z,58.80
2022-12-03T10:24:23.416Z,55.58
2022-12-03T10:26:54.372Z,55.53
2022-12-03T10:29:34.826Z,58.65
2022-12-03T10:32:09.131Z,56.05
2022-12-03T10:34:47.693Z,54.40
2022-12-03T10:37:21.669Z,54.53
2022-12-03T10:40:01.213Z,52.05
2022-12-03T10:42:47.867Z,51.97
2022-12-03T10:45:23.049Z,51.20
2022-12-03T10:48:20.101Z,49.67
2022-12-03T10:51:25.100Z,58.70
2022-12-03T10:53:52.413Z,53.63
2022-12-03T10:56:30.330Z,54.13
2022-12-03T10:58:59.264Z,51.50
2022-12-03T11:01:29.224Z,49.95
2022-12-03T11:04:09.043Z,52.47
2022-12-03T11:07:02.080Z,49.20
2022-12-03T11:09:34.069Z,42.80
2022-12-03T11:12:07.858Z,45.88
2022-12-03T11:15:38.816Z,51.85
2022-12-03T11:18:09.356Z,51.95
2022-12-03T11:20:47.997Z,45.92
2022-12-03T11:23:46.529Z,47.17
2022-12-03T11:26:27.299Z,51.22
2022-12-03T11:28:57.466Z,46.38
2022-12-03T11:31:58.974Z,49.72
2022-12-03T11:34:40.831Z,47.35
2022-12-03T11:37:13.969Z,46.88
2022-12-03T11:39:51.105Z,51.30
2022-12-03T11:42:47.013Z,46.75
2022-12-03T11:46:19.931Z,47.75
2022-12-03T11:48:50.502Z,46.08
2022-12-03T11:51:23.423Z,51.75
2022-12-03T11:54:31.042Z,48.30
2022-12-03T11:56:58.825Z,46.53
2022-12-03T11:59:27.717Z,48.50
2022-12-03T12:01:54.767Z,52.55
2022-12-03T12:04:43.943Z,45.58
2022-12-03T12:07:13.332Z,51.90
2022-12-03T12:10:07.819Z,51.92
2022-12-03T12:12:54.310Z,47.60
2022-12-03T12:15:48.107Z,50.65
2022-12-03T12:18:43.338Z,45.85
2022-12-03T12:21:51.162Z,45.65
2022-12-03T12:24:55.525Z,48.00
2022-12-03T12:27:31.803Z,45.55
2022-12-03T12:30:22.433Z,51.50
2022-12-03T12:32:54.491Z,44.72
2022-12-03T12:35:32.997Z,48.83
2022-12-03T12:38:14.838Z,44.38
2022-12-03T12:43:31.885Z,49.58
2022-12-03T12:49:10.544Z,51.30
2022-12-03T12:51:47.833Z,61.40
2022-12-03T12:54:22.887Z,52.05
2022-12-03T12:56:50.553Z,48.95
2022-12-03T12:59:27.361Z,49.13
2022-12-03T13:02:46.239Z,48.55
2022-12-03T13:05:14.373Z,49.72
2022-12-03T13:07:44.330Z,47.45
2022-12-03T13:10:40.773Z,48.25
2022-12-03T13:13:46.328Z,47.20
2022-12-03T13:16:25.710Z,44.72
2022-12-03T13:18:59.887Z,43.33
2022-12-03T13:21:47.265Z,44.83
2022-12-03T13:24:52.629Z,46.33
2022-12-03T13:27:19.846Z,46.60
2022-12-03T13:29:59.177Z,43.15
2022-12-03T13:32:39.340Z,46.60
2022-12-03T13:35:36.220Z,42.60
2022-12-03T13:38:15.660Z,46.33
2022-12-03T13:40:43.191Z,46.38
2022-12-03T13:43:18.708Z,44.55
2022-12-03T13:48:39.780Z,45.97
2022-12-03T13:51:33.594Z,51.30
2022-12-03T13:54:00.882Z,47.53
2022-12-03T13:56:33.870Z,44.95
2022-12-03T13:59:05.309Z,51.00
2022-12-03T14:01:32.822Z,50.55
2022-12-03T14:04:00.250Z,52.67
2022-12-03T14:06:27.454Z,47.88
2022-12-03T14:08:55.505Z,44.95
2022-12-03T14:11:41.088Z,42.85
2022-12-03T14:14:10.353Z,48.13
2022-12-03T14:16:38.878Z,44.10
2022-12-03T14:19:09.794Z,47.75
2022-12-03T14:21:37.212Z,45.67
2022-12-03T14:24:05.306Z,49.83
2022-12-03T14:26:32.566Z,43.42
2022-12-03T14:29:48.824Z,42.70
2022-12-03T14:32:17.112Z,51.65
2022-12-03T14:34:44.659Z,39.95
2022-12-03T14:37:12.166Z,42.65
2022-12-03T14:39:41.281Z,41.97
2022-12-03T14:42:18.727Z,44.22
2022-12-03T14:44:52.765Z,50.92
2022-12-03T14:47:29.888Z,51.17
2022-12-03T14:49:58.033Z,44.13
2022-12-03T14:52:25.594Z,41.95
2022-12-03T14:54:53.372Z,44.35
2022-12-03T14:57:21.220Z,43.38
2022-12-03T14:59:48.977Z,46.25
2022-12-03T15:02:22.921Z,46.63
2022-12-03T15:04:52.773Z,41.13
2022-12-03T15:07:19.649Z,48.60
2022-12-03T15:09:47.048Z,45.88
2022-12-03T15:12:16.554Z,45.13
2022-12-03T15:14:44.146Z,43.30
2022-12-03T15:17:11.278Z,43.97
2022-12-03T15:19:38.544Z,46.45
2022-12-03T15:22:05.687Z,43.72
2022-12-03T15:24:33.156Z,45.05
2022-12-03T15:27:00.027Z,45.45
2022-12-03T15:29:27.354Z,44.25
2022-12-03T15:31:55.116Z,46.25
2022-12-03T15:34:23.249Z,38.20
2022-12-03T15:36:51.204Z,41.72
2022-12-03T15:39:18.653Z,41.67
2022-12-03T15:41:45.545Z,41.92
2022-12-03T15:44:12.598Z,40.38
2022-12-03T15:46:39.554Z,40.67
2022-12-03T15:49:07.307Z,40.67
2022-12-03T15:51:34.402Z,40.75
2022-12-03T15:54:01.947Z,40.85
2022-12-03T15:56:29.307Z,37.70
2022-12-03T15:58:56.844Z,42.00
2022-12-03T16:01:25.144Z,37.53
2022-12-03T16:04:14.871Z,42.65
2022-12-03T16:06:44.737Z,41.90
2022-12-03T16:09:11.922Z,38.63
2022-12-03T16:11:41.964Z,36.72
2022-12-03T16:14:09.052Z,37.28
2022-12-03T16:17:21.922Z,34.63
2022-12-03T16:19:50.231Z,39.42
2022-12-03T16:22:18.201Z,41.90
2022-12-03T16:24:45.873Z,43.60
2022-12-03T16:27:13.354Z,42.15
2022-12-03T16:29:40.932Z,40.67
2022-12-03T16:32:08.398Z,38.30
2022-12-03T16:34:35.927Z,38.15
2022-12-03T16:37:04.797Z,41.13
2022-12-03T16:39:32.305Z,42.55
2022-12-03T16:41:59.236Z,49.15
2022-12-03T16:44:50.511Z,38.72
2022-12-03T16:47:17.774Z,43.75
2022-12-03T16:49:45.542Z,37.92
2022-12-03T16:52:12.855Z,38.38
2022-12-03T16:54:40.331Z,37.78
2022-12-03T16:57:10.150Z,38.75
2022-12-03T16:59:37.452Z,40.30
2022-12-03T17:02:04.494Z,36.85
2022-12-03T17:04:31.835Z,38.53
2022-12-03T17:06:59.175Z,38.92
2022-12-03T17:09:26.519Z,35.80
2022-12-03T17:11:53.482Z,38.30
2022-12-03T17:14:21.476Z,34.25
2022-12-03T17:16:48.682Z,36.50
2022-12-03T17:19:16.472Z,36.95
2022-12-03T17:21:43.477Z,43.33
2022-12-03T17:24:10.612Z,37.13
2022-12-03T17:26:37.714Z,36.90
2022-12-03T17:29:05.500Z,37.80
2022-12-03T17:31:36.943Z,35.20
2022-12-03T17:34:10.234Z,35.58
2022-12-03T17:36:40.620Z,36.10
2022-12-03T17:39:07.723Z,34.50
2022-12-03T17:41:35.011Z,35.10
2022-12-03T17:44:09.731Z,39.10
2022-12-03T17:46:42.295Z,37.00
2022-12-03T17:49:10.074Z,39.00
2022-12-03T17:51:40.149Z,37.90
2022-12-03T17:54:07.524Z,41.42
2022-12-03T17:56:37.107Z,37.38
2022-12-03T17:59:06.412Z,39.00
2022-12-03T18:01:35.672Z,34.75
2022-12-03T18:04:07.127Z,42.83
2022-12-03T18:06:34.493Z,45.75
2022-12-03T18:09:02.672Z,34.50
2022-12-03T18:11:29.727Z,39.97
2022-12-03T18:13:57.461Z,40.38
2022-12-03T18:16:24.951Z,42.03
2022-12-03T18:18:56.526Z,36.85
2022-12-03T18:21:31.517Z,40.33
2022-12-03T18:24:00.246Z,37.97
2022-12-03T18:26:27.286Z,37.17
2022-12-03T18:28:54.876Z,42.42
2022-12-03T18:31:22.788Z,36.85
2022-12-03T18:33:50.150Z,39.88
2022-12-03T18:36:33.807Z,36.28
2022-12-03T18:39:09.374Z,29.27
2022-12-03T18:41:38.845Z,39.60
2022-12-03T18:44:12.141Z,37.22
2022-12-03T18:46:53.338Z,33.97
2022-12-03T18:49:25.190Z,38.65
2022-12-03T18:51:59.020Z,36.17
2022-12-03T18:54:28.979Z,38.83
2022-12-03T18:56:57.375Z,34.15
2022-12-03T18:59:26.161Z,37.05
2022-12-03T19:01:53.936Z,36.55
2022-12-03T19:04:21.296Z,34.88
2022-12-03T19:06:48.482Z,38.75
2022-12-03T19:09:51.566Z,37.17
2022-12-03T19:12:20.354Z,37.92
2022-12-03T19:15:03.356Z,37.60
2022-12-03T19:18:11.185Z,35.15
2022-12-03T19:20:58.092Z,37.72
2022-12-03T19:23:25.098Z,37.35
2022-12-03T19:26:07.335Z,36.85
2022-12-03T19:28:35.728Z,41.80
2022-12-03T19:31:23.183Z,38.65
2022-12-03T19:34:38.129Z,42.85
2022-12-03T19:37:07.308Z,35.83
2022-12-03T19:39:34.850Z,38.90
2022-12-03T19:42:45.332Z,40.92
2022-12-03T19:45:14.554Z,42.75
2022-12-03T19:47:46.322Z,41.55
2022-12-03T19:50:22.573Z,39.67
2022-12-03T19:52:54.502Z,40.63
2022-12-03T19:55:24.417Z,42.83
2022-12-03T19:57:51.591Z,40.05
2022-12-03T20:00:21.807Z,35.85
2022-12-03T20:03:48.424Z,39.58
2022-12-03T20:06:26.314Z,42.85
2022-12-03T20:12:09.715Z,41.65
2022-12-03T20:14:38.202Z,40.80
2022-12-03T20:17:05.732Z,44.45
2022-12-03T20:19:33.427Z,46.05
2022-12-03T20:22:05.184Z,40.95
2022-12-03T20:24:33.325Z,44.22
2022-12-03T20:27:03.725Z,43.83
2022-12-03T20:29:32.750Z,42.25
2022-12-03T20:32:04.402Z,45.85
2022-12-03T20:34:31.766Z,48.65
2022-12-03T20:36:58.594Z,42.78
2022-12-03T20:39:26.814Z,43.97
2022-12-03T20:41:54.026Z,53.60
2022-12-03T20:44:21.270Z,45.70
2022-12-03T20:46:48.784Z,46.30
2022-12-03T20:49:16.296Z,49.08
2022-12-03T20:51:43.632Z,50.55
2022-12-03T20:54:11.707Z,53.10
2022-12-03T20:56:42.194Z,47.40
2022-12-03T20:59:18.614Z,50.55
2022-12-03T21:01:46.192Z,47.38
2022-12-03T21:04:13.999Z,47.30
2022-12-03T21:06:42.446Z,51.70
2022-12-03T21:09:59.876Z,51.25
2022-12-03T21:12:27.604Z,51.75
2022-12-03T21:14:54.772Z,55.90
2022-12-03T21:17:21.758Z,58.25
2022-12-03T21:19:49.189Z,54.40
2022-12-03T21:22:16.103Z,66.35
2022-12-03T21:24:43.891Z,60.00
2022-12-03T21:27:14.513Z,54.33
2022-12-03T21:29:49.828Z,60.80
2022-12-03T21:32:17.949Z,61.08
2022-12-03T21:34:45.848Z,60.53
2022-12-03T21:37:12.989Z,58.05
2022-12-03T21:39:40.664Z,61.50
2022-12-03T21:42:33.968Z,56.47
2022-12-03T21:44:56.433Z,64.10
2022-12-03T21:47:24.022Z,58.35
2022-12-03T21:49:52.212Z,63.38
2022-12-03T21:52:19.890Z,66.93
2022-12-03T21:54:47.471Z,66.82
2022-12-03T21:57:14.821Z,61.58
2022-12-03T21:59:42.600Z,67.00
2022-12-03T22:02:11.558Z,74.60
2022-12-03T22:04:40.181Z,70.55
2022-12-03T22:07:07.623Z,64.47
2022-12-03T22:09:37.915Z,69.90
2022-12-03T22:12:05.348Z,68.20
2022-12-03T22:14:32.561Z,66.90
2022-12-03T22:16:59.454Z,66.32
2022-12-03T22:19:27.256Z,71.10
2022-12-03T22:21:54.150Z,67.40
2022-12-03T22:24:21.585Z,69.20
2022-12-03T22:26:48.404Z,63.38
2022-12-03T22:29:15.767Z,70.45
2022-12-03T22:31:42.918Z,65.78
2022-12-03T22:34:10.673Z,81.20
2022-12-03T22:36:38.018Z,66.20
2022-12-03T22:39:05.647Z,66.80
2022-12-03T22:41:32.896Z,71.05
2022-12-03T22:44:00.695Z,71.53
2022-12-03T22:46:28.148Z,71.80
2022-12-03T22:48:55.671Z,73.05
2022-12-03T22:51:25.950Z,68.93
2022-12-03T22:53:59.426Z,80.05
2022-12-03T22:56:29.830Z,70.43
2022-12-03T22:58:58.031Z,72.78
2022-12-03T23:01:33.621Z,72.72
2022-12-03T23:04:02.640Z,72.05
2022-12-03T23:06:31.907Z,70.97
2022-12-03T23:09:00.181Z,75.78
2022-12-03T23:11:28.592Z,70.72
2022-12-03T23:13:55.721Z,71.82
2022-12-03T23:16:28.138Z,80.72
2022-12-03T23:19:01.950Z,75.82
2022-12-03T23:21:34.263Z,80.60
2022-12-03T23:24:05.174Z,75.32
2022-12-03T23:26:37.816Z,78.35
2022-12-03T23:29:06.690Z,76.90
2022-12-03T23:31:34.594Z,78.82
2022-12-03T23:34:02.700Z,71.25
2022-12-03T23:36:32.940Z,69.78
2022-12-03T23:39:00.732Z,75.00
2022-12-03T23:41:28.714Z,70.72
2022-12-03T23:43:56.863Z,71.90
2022-12-03T23:46:27.956Z,72.60
2022-12-03T23:48:58.524Z,66.07
2022-12-03T23:51:25.949Z,74.35
2022-12-03T23:53:56.282Z,70.88
2022-12-03T23:56:29.626Z,73.55
2022-12-03T23:58:58.766Z,70.22
